Skip Navigation Links
NOAA logo - Click to go to the NOAA homepage
NOAA's National Weather Service
Alaska Aviation Weather Unit
  NWS logo - Click to go to the NWS homepage
Left Navbar Graphic     02 AKDT = 10 GMT

   
NOAA is celebrating 200 years of science, service, and stewardship. Visit the NOAA 200th celebration Web site to learn more.
USA.gov is the U.S. Government's official Web portal to all Federal, state and local government Web resources and services.
Facebook
NWS on Facebook

AAWU Home :: Display TAF Add Bookmark
METAR PAGN 270456Z AUTO 00000KT 9SM CLR 02/M01 A2959 RMK AO2 SLP009
     T00171006 FZRANO=

METAR PAGN 270556Z AUTO 00000KT 10SM OVC095 02/M01 A2960 RMK AO2 SLP012
     T00171006 10078 20011 53003 FZRANO=

METAR PAGN 270656Z AUTO 00000KT 8SM OVC090 01/00 A2961 RMK AO2
 SLP015 T00110000 FZRANO=

PAGN 270756Z AUTO 00000KT 10SM OVC070 02/00 A2961 RMK AO2 SLP017
     T00170000 FZRANO=

METAR PAGN 270856Z AUTO 01003KT 10SM OVC065 02/M01 A2961 RMK AO2 SLP015
     T00171011 400780011 50003 FZRANO=

METAR PAGN 270956Z AUTO 00000KT 10SM BKN042 OVC050 02/M01 A2962 RMK AO2
     SLP019 T00171011 FZRANO=


NOAA's National Weather Service
Alaska Aviation Weather Unit
6930 Sand Lake Road
Anchorage, AK 99502-1845
Disclaimer
Credits
Glossary
Privacy Policy
About Us
Career Opportunities
Contact AAWU Internet Services Site last modified: April, 17th 2012